Terminal Aerodrome Forecast
Issued by NWS

Home | Current Version | Previous Version | Text Only | Print | Product List | Glossary On
Versions: 1 2 3 4 5 6 7 8 9 10 11 12 13 14 15
000
FTUS43 KMPX 281735
TAFRNH
TAF
KRNH 281735Z 2818/2918 05007KT P6SM OVC050
     FM290300 04004KT P6SM BKN080
     FM291400 06006KT P6SM SCT150=

USA.gov is the U.S. government's official web portal to all federal, state and local government web resources and services.